createdAt,value
2022-09-27T00:10:04.350Z,21.4
2022-09-27T00:25:05.164Z,21.4
2022-09-27T00:40:06.318Z,21.4
2022-09-27T00:55:05.471Z,21.4
2022-09-27T01:10:04.273Z,21.4
2022-09-27T01:25:03.094Z,21.4
2022-09-27T01:40:05.544Z,21.3
2022-09-27T01:55:06.155Z,21.3
2022-09-27T02:10:03.405Z,21.3
2022-09-27T02:25:03.137Z,21.3
2022-09-27T02:40:06.430Z,21.2
2022-09-27T02:55:04.431Z,21.2
2022-09-27T03:10:05.194Z,21.2
2022-09-27T03:25:05.170Z,21.2
2022-09-27T03:40:05.395Z,21.2
2022-09-27T03:55:05.053Z,21.2
2022-09-27T04:10:03.399Z,21.1
2022-09-27T04:25:03.617Z,21.1
2022-09-27T04:40:03.345Z,21.1
2022-09-27T04:55:03.369Z,21.1
2022-09-27T05:10:04.302Z,21.1
2022-09-27T05:25:03.314Z,21.2
2022-09-27T05:45:03.441Z,21.2
2022-09-27T06:00:05.510Z,21.3
2022-09-27T06:15:04.553Z,21.3
2022-09-27T06:30:05.570Z,21.4
2022-09-27T06:45:04.361Z,21.5
2022-09-27T07:00:02.503Z,21.6
2022-09-27T07:15:05.170Z,21.7
2022-09-27T07:30:05.393Z,21.8
2022-09-27T07:45:05.380Z,21.9
2022-09-27T08:05:03.124Z,21.9
2022-09-27T08:20:06.557Z,21.9
2022-09-27T08:35:04.387Z,21.9
2022-09-27T08:50:05.402Z,21.8
2022-09-27T09:05:06.382Z,21.8
2022-09-27T09:20:06.580Z,21.7
2022-09-27T09:35:06.311Z,21.6
2022-09-27T09:50:05.569Z,21.6
2022-09-27T10:05:02.527Z,21.6
2022-09-27T10:20:05.350Z,21.6
2022-09-27T10:35:04.338Z,21.6
2022-09-27T10:50:05.519Z,21.7
2022-09-27T11:05:04.254Z,21.7
2022-09-27T11:20:03.601Z,21.7
2022-09-27T11:35:03.223Z,21.6
2022-09-27T11:50:06.505Z,21.6
2022-09-27T12:05:04.333Z,21.7
2022-09-27T12:20:05.586Z,21.7
2022-09-27T12:35:06.574Z,21.8
2022-09-27T12:50:05.264Z,22
2022-09-27T13:05:04.555Z,22
2022-09-27T13:20:02.638Z,22.1
2022-09-27T13:35:03.523Z,22.2
2022-09-27T13:50:02.561Z,22.2
2022-09-27T14:05:06.614Z,22.3
2022-09-27T14:20:06.097Z,22.3
2022-09-27T14:35:04.596Z,22.4
2022-09-27T14:50:04.258Z,22.5
2022-09-27T15:05:06.189Z,22.5
2022-09-27T15:20:06.467Z,22.5
2022-09-27T15:35:05.294Z,22.5
2022-09-27T15:50:06.554Z,22.5
2022-09-27T16:05:05.628Z,22.6
2022-09-27T16:20:04.359Z,22.6
2022-09-27T16:35:03.409Z,22.6
2022-09-27T16:50:03.086Z,22.6
2022-09-27T17:05:03.342Z,22.6
2022-09-27T17:20:03.385Z,22.6
2022-09-27T17:35:02.203Z,22.5
2022-09-27T17:50:03.341Z,22.5
2022-09-27T18:05:04.114Z,22.5
2022-09-27T18:20:04.515Z,22.5
2022-09-27T18:35:03.188Z,22.5
2022-09-27T18:50:04.422Z,22.5
2022-09-27T19:05:04.649Z,22.5
2022-09-27T19:20:02.529Z,22.4
2022-09-27T19:35:04.543Z,22.4
2022-09-27T19:50:02.588Z,22.3
2022-09-27T20:05:05.356Z,22.2
2022-09-27T20:20:06.377Z,22.2
2022-09-27T20:35:04.311Z,22.2
2022-09-27T20:50:04.144Z,22.1
2022-09-27T21:05:03.346Z,22.1
2022-09-27T21:20:03.584Z,22.1
2022-09-27T21:35:06.457Z,22
2022-09-27T21:50:05.321Z,22
2022-09-27T22:05:02.451Z,21.9
2022-09-27T22:20:06.554Z,21.9
2022-09-27T22:35:03.066Z,21.9
2022-09-27T22:50:03.482Z,21.8
2022-09-27T23:05:03.366Z,21.8
2022-09-27T23:20:03.122Z,21.8
2022-09-27T23:35:03.052Z,21.7
2022-09-27T23:50:03.109Z,21.7
